Lake Alma, Canada
Current Conditions -  °F | °C
As of 7:15 PM on Friday 28 Nov 2014 (Local Time) from KD50 Reporting Station
Overcast Overcast  
Wind Chill:   Ceiling: 7000
Heat Index: 14°   Visibility: 10mi
Dew Point: 10°   Wind: 7mph
Humidity: 86%   Direction: 60°ENE
Pressure: 29.5"   Gusts: NA
Location:  49.13°N, 104.18°W
Report Text: KD50 290115Z AUTO 06006KT 10SM FEW021 OVC070 M10/M12 A2950 RMK AO2
Loading
Personal Weather Stations






























Interactive Weather Map New forecast layout! Learn more

10-Day Weather Forecast

Advertisements
Track Severe Weather on mobile